Terminal Aerodrome Forecast
Issued by NWS Raleigh/Durham, NC

Home | Current Version | Previous Version | Text Only | Print | Product List | Glossary On
Versions: 1 2 3 4 5 6 7 8 9 10 11 12 13 14 15 16 17 18 19 20 21 22 23 24 25 26 27 28 29 30
000
FTUS42 KRAH 172338
TAFFAY
TAF
KFAY 172338Z 1800/1824 VRB05KT P6SM VCSH FEW060 BKN250
     FM180700 19004KT 4SM BR BKN012
      TEMPO 1808/1812 2SM BR BKN002
     FM181500 22009KT P6SM BKN035 PROB30 1818/1824 VRB15G25KT 2SM
      TSRA BKN025CB=

USA.gov is the U.S. government's official web portal to all federal, state and local government web resources and services.